Terminal Aerodrome Forecast
Issued by NWS Pueblo, CO

Home | Current Version | Previous Version | Text Only | Print | Product List | Glossary On
Versions: 1 2 3 4 5 6 7 8 9 10 11 12 13 14 15 16
000
FTUS45 KPUB 182320
TAFALS
TAF
KALS 182320Z 1900/1924 25012KT P6SM BKN110
     FM190300 19009KT P6SM SCT070 BKN110
     FM191200 20008KT P6SM VCSH SCT040 BKN070
     FM192100 25012KT P6SM VCSH BKN040=

USA.gov is the U.S. government's official web portal to all federal, state and local government web resources and services.